sensor_id;sensor_type;location;lat;lon;timestamp;P1;durP1;ratioP1;P2;durP2;ratioP2
2756;SDS011;1386;50.862;6.494;2022-09-16T00:01:00;5.47;;;1.80;;
2756;SDS011;1386;50.862;6.494;2022-09-16T00:03:36;5.70;;;2.27;;
2756;SDS011;1386;50.862;6.494;2022-09-16T00:06:03;5.47;;;2.10;;
2756;SDS011;1386;50.862;6.494;2022-09-16T00:08:30;3.10;;;1.77;;
2756;SDS011;1386;50.862;6.494;2022-09-16T00:10:58;4.03;;;2.00;;
2756;SDS011;1386;50.862;6.494;2022-09-16T00:13:26;3.50;;;1.63;;
2756;SDS011;1386;50.862;6.494;2022-09-16T00:16:00;2.60;;;1.83;;
2756;SDS011;1386;50.862;6.494;2022-09-16T00:18:37;7.33;;;1.80;;
2756;SDS011;1386;50.862;6.494;2022-09-16T00:21:11;4.23;;;2.20;;
2756;SDS011;1386;50.862;6.494;2022-09-16T00:23:38;5.13;;;1.87;;
2756;SDS011;1386;50.862;6.494;2022-09-16T00:26:05;4.30;;;1.77;;
2756;SDS011;1386;50.862;6.494;2022-09-16T00:28:32;4.17;;;1.90;;
2756;SDS011;1386;50.862;6.494;2022-09-16T00:30:59;4.23;;;1.97;;
2756;SDS011;1386;50.862;6.494;2022-09-16T00:33:27;5.57;;;2.17;;
2756;SDS011;1386;50.862;6.494;2022-09-16T00:36:04;4.43;;;2.13;;
2756;SDS011;1386;50.862;6.494;2022-09-16T00:38:33;7.60;;;2.17;;
2756;SDS011;1386;50.862;6.494;2022-09-16T00:41:00;8.30;;;2.20;;
2756;SDS011;1386;50.862;6.494;2022-09-16T00:43:27;4.20;;;1.80;;
2756;SDS011;1386;50.862;6.494;2022-09-16T00:45:55;4.73;;;2.47;;
2756;SDS011;1386;50.862;6.494;2022-09-16T00:48:28;3.43;;;2.10;;
2756;SDS011;1386;50.862;6.494;2022-09-16T00:50:57;3.00;;;2.00;;
2756;SDS011;1386;50.862;6.494;2022-09-16T00:53:39;6.63;;;2.47;;
2756;SDS011;1386;50.862;6.494;2022-09-16T00:56:13;6.37;;;2.30;;
2756;SDS011;1386;50.862;6.494;2022-09-16T00:58:43;6.47;;;2.93;;
2756;SDS011;1386;50.862;6.494;2022-09-16T01:01:12;5.20;;;2.60;;
2756;SDS011;1386;50.862;6.494;2022-09-16T01:03:41;6.47;;;2.27;;
2756;SDS011;1386;50.862;6.494;2022-09-16T01:06:11;5.20;;;2.60;;
2756;SDS011;1386;50.862;6.494;2022-09-16T01:08:41;9.43;;;3.13;;
2756;SDS011;1386;50.862;6.494;2022-09-16T01:11:10;8.80;;;2.70;;
2756;SDS011;1386;50.862;6.494;2022-09-16T01:13:37;4.63;;;2.40;;
2756;SDS011;1386;50.862;6.494;2022-09-16T01:16:05;2.93;;;2.33;;
2756;SDS011;1386;50.862;6.494;2022-09-16T01:18:37;13.13;;;2.57;;
2756;SDS011;1386;50.862;6.494;2022-09-16T01:21:17;9.37;;;2.30;;
2756;SDS011;1386;50.862;6.494;2022-09-16T01:23:59;5.40;;;2.23;;
2756;SDS011;1386;50.862;6.494;2022-09-16T01:30:02;5.63;;;2.90;;
2756;SDS011;1386;50.862;6.494;2022-09-16T01:32:57;5.67;;;2.50;;
2756;SDS011;1386;50.862;6.494;2022-09-16T01:35:32;4.93;;;2.20;;
2756;SDS011;1386;50.862;6.494;2022-09-16T01:38:09;6.80;;;2.07;;
2756;SDS011;1386;50.862;6.494;2022-09-16T01:40:51;7.40;;;2.80;;
2756;SDS011;1386;50.862;6.494;2022-09-16T01:43:29;5.07;;;1.90;;
2756;SDS011;1386;50.862;6.494;2022-09-16T01:46:17;5.63;;;2.30;;
2756;SDS011;1386;50.862;6.494;2022-09-16T01:48:53;10.27;;;2.67;;
2756;SDS011;1386;50.862;6.494;2022-09-16T01:51:24;8.77;;;2.33;;
2756;SDS011;1386;50.862;6.494;2022-09-16T01:54:01;6.90;;;2.40;;
2756;SDS011;1386;50.862;6.494;2022-09-16T01:56:36;10.17;;;2.50;;
2756;SDS011;1386;50.862;6.494;2022-09-16T01:59:08;2.90;;;2.20;;
2756;SDS011;1386;50.862;6.494;2022-09-16T02:01:41;8.60;;;2.37;;
2756;SDS011;1386;50.862;6.494;2022-09-16T02:04:15;11.03;;;3.17;;
2756;SDS011;1386;50.862;6.494;2022-09-16T02:06:49;7.50;;;2.80;;
2756;SDS011;1386;50.862;6.494;2022-09-16T02:09:19;3.77;;;2.23;;
2756;SDS011;1386;50.862;6.494;2022-09-16T02:11:52;8.00;;;2.87;;
2756;SDS011;1386;50.862;6.494;2022-09-16T02:14:22;6.70;;;3.13;;
2756;SDS011;1386;50.862;6.494;2022-09-16T02:16:56;7.53;;;2.03;;
2756;SDS011;1386;50.862;6.494;2022-09-16T02:19:29;7.43;;;2.53;;
2756;SDS011;1386;50.862;6.494;2022-09-16T02:22:02;5.57;;;2.17;;
2756;SDS011;1386;50.862;6.494;2022-09-16T02:24:34;7.27;;;2.60;;
2756;SDS011;1386;50.862;6.494;2022-09-16T02:27:04;7.20;;;2.43;;
2756;SDS011;1386;50.862;6.494;2022-09-16T02:29:36;4.50;;;2.20;;
2756;SDS011;1386;50.862;6.494;2022-09-16T02:32:06;5.40;;;2.17;;
2756;SDS011;1386;50.862;6.494;2022-09-16T02:34:43;5.43;;;1.77;;
2756;SDS011;1386;50.862;6.494;2022-09-16T02:37:16;4.03;;;1.70;;
2756;SDS011;1386;50.862;6.494;2022-09-16T02:39:47;3.30;;;1.93;;
2756;SDS011;1386;50.862;6.494;2022-09-16T02:42:15;5.63;;;1.93;;
2756;SDS011;1386;50.862;6.494;2022-09-16T02:44:42;6.27;;;2.10;;
2756;SDS011;1386;50.862;6.494;2022-09-16T02:47:11;8.90;;;2.80;;
2756;SDS011;1386;50.862;6.494;2022-09-16T02:49:44;6.40;;;2.27;;
2756;SDS011;1386;50.862;6.494;2022-09-16T02:52:20;6.20;;;2.00;;
2756;SDS011;1386;50.862;6.494;2022-09-16T02:54:55;5.30;;;2.00;;
2756;SDS011;1386;50.862;6.494;2022-09-16T02:57:30;5.77;;;2.00;;
2756;SDS011;1386;50.862;6.494;2022-09-16T02:59:57;5.53;;;2.23;;
2756;SDS011;1386;50.862;6.494;2022-09-16T03:02:30;7.13;;;2.10;;
2756;SDS011;1386;50.862;6.494;2022-09-16T03:05:01;6.33;;;1.87;;
2756;SDS011;1386;50.862;6.494;2022-09-16T03:07:28;3.80;;;2.10;;
2756;SDS011;1386;50.862;6.494;2022-09-16T03:09:58;9.43;;;2.43;;
2756;SDS011;1386;50.862;6.494;2022-09-16T03:12:38;2.70;;;1.73;;
2756;SDS011;1386;50.862;6.494;2022-09-16T03:15:17;7.60;;;2.27;;
2756;SDS011;1386;50.862;6.494;2022-09-16T03:21:03;4.73;;;3.07;;
2756;SDS011;1386;50.862;6.494;2022-09-16T03:23:41;3.47;;;1.80;;
2756;SDS011;1386;50.862;6.494;2022-09-16T03:26:19;4.77;;;2.30;;
2756;SDS011;1386;50.862;6.494;2022-09-16T03:28:58;7.17;;;1.90;;
2756;SDS011;1386;50.862;6.494;2022-09-16T03:31:35;9.90;;;2.33;;
2756;SDS011;1386;50.862;6.494;2022-09-16T03:34:14;5.10;;;2.30;;
2756;SDS011;1386;50.862;6.494;2022-09-16T03:36:48;6.57;;;2.10;;
2756;SDS011;1386;50.862;6.494;2022-09-16T03:39:21;5.80;;;2.33;;
2756;SDS011;1386;50.862;6.494;2022-09-16T03:41:51;7.83;;;2.20;;
2756;SDS011;1386;50.862;6.494;2022-09-16T03:44:29;7.20;;;2.20;;
2756;SDS011;1386;50.862;6.494;2022-09-16T03:47:00;8.13;;;2.23;;
2756;SDS011;1386;50.862;6.494;2022-09-16T03:49:28;9.10;;;2.50;;
2756;SDS011;1386;50.862;6.494;2022-09-16T03:51:56;3.67;;;2.00;;
2756;SDS011;1386;50.862;6.494;2022-09-16T03:54:26;5.93;;;2.43;;
2756;SDS011;1386;50.862;6.494;2022-09-16T03:56:53;3.83;;;2.17;;
2756;SDS011;1386;50.862;6.494;2022-09-16T03:59:20;4.20;;;1.97;;
2756;SDS011;1386;50.862;6.494;2022-09-16T04:01:49;3.60;;;2.20;;
2756;SDS011;1386;50.862;6.494;2022-09-16T04:04:19;6.90;;;2.37;;
2756;SDS011;1386;50.862;6.494;2022-09-16T04:06:48;6.57;;;1.90;;
2756;SDS011;1386;50.862;6.494;2022-09-16T04:09:18;6.40;;;1.70;;
2756;SDS011;1386;50.862;6.494;2022-09-16T04:11:45;4.30;;;2.20;;
2756;SDS011;1386;50.862;6.494;2022-09-16T04:14:12;7.90;;;2.17;;
2756;SDS011;1386;50.862;6.494;2022-09-16T04:16:39;4.13;;;1.73;;
2756;SDS011;1386;50.862;6.494;2022-09-16T04:19:06;2.37;;;2.07;;
2756;SDS011;1386;50.862;6.494;2022-09-16T04:21:38;4.20;;;1.80;;
2756;SDS011;1386;50.862;6.494;2022-09-16T04:24:17;6.40;;;1.70;;
2756;SDS011;1386;50.862;6.494;2022-09-16T04:26:48;6.00;;;2.00;;
2756;SDS011;1386;50.862;6.494;2022-09-16T04:29:15;5.83;;;2.07;;
2756;SDS011;1386;50.862;6.494;2022-09-16T04:31:42;4.57;;;2.03;;
2756;SDS011;1386;50.862;6.494;2022-09-16T04:34:16;5.00;;;1.83;;
2756;SDS011;1386;50.862;6.494;2022-09-16T04:36:52;3.60;;;1.60;;
2756;SDS011;1386;50.862;6.494;2022-09-16T04:39:20;10.07;;;1.97;;
2756;SDS011;1386;50.862;6.494;2022-09-16T04:41:47;3.63;;;1.80;;
2756;SDS011;1386;50.862;6.494;2022-09-16T04:44:14;6.90;;;2.23;;
2756;SDS011;1386;50.862;6.494;2022-09-16T04:47:07;7.50;;;1.80;;
2756;SDS011;1386;50.862;6.494;2022-09-16T04:50:10;4.50;;;1.80;;
2756;SDS011;1386;50.862;6.494;2022-09-16T04:52:36;5.90;;;2.43;;
2756;SDS011;1386;50.862;6.494;2022-09-16T04:55:05;4.13;;;2.03;;
2756;SDS011;1386;50.862;6.494;2022-09-16T05:00:30;13.50;;;2.20;;
2756;SDS011;1386;50.862;6.494;2022-09-16T05:02:57;4.90;;;2.10;;
2756;SDS011;1386;50.862;6.494;2022-09-16T05:05:24;7.53;;;3.00;;
2756;SDS011;1386;50.862;6.494;2022-09-16T05:08:07;5.03;;;2.00;;
2756;SDS011;1386;50.862;6.494;2022-09-16T05:10:35;4.13;;;1.80;;
2756;SDS011;1386;50.862;6.494;2022-09-16T05:13:02;5.27;;;1.73;;
2756;SDS011;1386;50.862;6.494;2022-09-16T05:15:32;7.20;;;1.87;;
2756;SDS011;1386;50.862;6.494;2022-09-16T05:18:14;3.50;;;1.70;;
2756;SDS011;1386;50.862;6.494;2022-09-16T05:20:41;3.63;;;1.90;;
2756;SDS011;1386;50.862;6.494;2022-09-16T05:23:07;5.63;;;1.73;;
2756;SDS011;1386;50.862;6.494;2022-09-16T05:25:36;11.20;;;2.00;;
2756;SDS011;1386;50.862;6.494;2022-09-16T05:28:23;6.23;;;2.40;;
2756;SDS011;1386;50.862;6.494;2022-09-16T05:34:10;3.93;;;1.63;;
2756;SDS011;1386;50.862;6.494;2022-09-16T05:36:39;4.80;;;1.60;;
2756;SDS011;1386;50.862;6.494;2022-09-16T05:39:24;5.10;;;1.63;;
2756;SDS011;1386;50.862;6.494;2022-09-16T05:44:40;2.70;;;1.53;;
2756;SDS011;1386;50.862;6.494;2022-09-16T05:50:13;5.33;;;1.60;;
2756;SDS011;1386;50.862;6.494;2022-09-16T05:52:40;9.17;;;1.77;;
2756;SDS011;1386;50.862;6.494;2022-09-16T05:55:09;6.13;;;1.60;;
2756;SDS011;1386;50.862;6.494;2022-09-16T05:57:45;4.70;;;1.97;;
2756;SDS011;1386;50.862;6.494;2022-09-16T06:00:13;10.63;;;2.03;;
2756;SDS011;1386;50.862;6.494;2022-09-16T06:02:40;4.67;;;2.07;;
2756;SDS011;1386;50.862;6.494;2022-09-16T06:05:07;6.77;;;2.00;;
2756;SDS011;1386;50.862;6.494;2022-09-16T06:07:34;4.47;;;2.17;;
2756;SDS011;1386;50.862;6.494;2022-09-16T06:10:02;3.63;;;1.87;;
2756;SDS011;1386;50.862;6.494;2022-09-16T06:12:29;3.43;;;1.90;;
2756;SDS011;1386;50.862;6.494;2022-09-16T06:17:39;12.00;;;2.27;;
2756;SDS011;1386;50.862;6.494;2022-09-16T06:20:06;5.13;;;1.87;;
2756;SDS011;1386;50.862;6.494;2022-09-16T06:22:38;5.40;;;1.73;;
2756;SDS011;1386;50.862;6.494;2022-09-16T06:25:05;4.43;;;2.30;;
2756;SDS011;1386;50.862;6.494;2022-09-16T06:28:10;5.30;;;2.00;;
2756;SDS011;1386;50.862;6.494;2022-09-16T06:31:05;6.07;;;1.97;;
2756;SDS011;1386;50.862;6.494;2022-09-16T06:33:33;5.10;;;2.13;;
2756;SDS011;1386;50.862;6.494;2022-09-16T06:36:06;7.63;;;2.20;;
2756;SDS011;1386;50.862;6.494;2022-09-16T06:38:34;10.20;;;2.03;;
2756;SDS011;1386;50.862;6.494;2022-09-16T06:41:16;10.00;;;1.80;;
2756;SDS011;1386;50.862;6.494;2022-09-16T06:43:44;5.73;;;2.30;;
2756;SDS011;1386;50.862;6.494;2022-09-16T06:46:15;6.10;;;1.60;;
2756;SDS011;1386;50.862;6.494;2022-09-16T06:48:44;4.33;;;2.33;;
2756;SDS011;1386;50.862;6.494;2022-09-16T06:51:15;3.97;;;1.77;;
2756;SDS011;1386;50.862;6.494;2022-09-16T06:53:58;4.70;;;1.80;;
2756;SDS011;1386;50.862;6.494;2022-09-16T06:56:30;3.90;;;1.73;;
2756;SDS011;1386;50.862;6.494;2022-09-16T06:58:58;4.13;;;1.70;;
2756;SDS011;1386;50.862;6.494;2022-09-16T07:01:29;2.97;;;1.60;;
2756;SDS011;1386;50.862;6.494;2022-09-16T07:03:56;2.93;;;1.80;;
2756;SDS011;1386;50.862;6.494;2022-09-16T07:06:26;5.93;;;2.00;;
2756;SDS011;1386;50.862;6.494;2022-09-16T07:08:53;4.27;;;1.70;;
2756;SDS011;1386;50.862;6.494;2022-09-16T07:11:21;5.60;;;2.00;;
2756;SDS011;1386;50.862;6.494;2022-09-16T07:13:49;7.00;;;2.33;;
2756;SDS011;1386;50.862;6.494;2022-09-16T07:16:16;11.43;;;1.93;;
2756;SDS011;1386;50.862;6.494;2022-09-16T07:18:47;3.20;;;1.50;;
2756;SDS011;1386;50.862;6.494;2022-09-16T07:21:19;5.00;;;1.97;;
2756;SDS011;1386;50.862;6.494;2022-09-16T07:23:48;6.30;;;1.63;;
2756;SDS011;1386;50.862;6.494;2022-09-16T07:26:22;3.30;;;1.90;;
2756;SDS011;1386;50.862;6.494;2022-09-16T07:29:03;4.70;;;1.63;;
2756;SDS011;1386;50.862;6.494;2022-09-16T07:31:43;4.27;;;1.80;;
2756;SDS011;1386;50.862;6.494;2022-09-16T07:34:16;3.83;;;1.57;;
2756;SDS011;1386;50.862;6.494;2022-09-16T07:37:22;6.80;;;1.97;;
2756;SDS011;1386;50.862;6.494;2022-09-16T07:39:42;3.63;;;1.40;;
2756;SDS011;1386;50.862;6.494;2022-09-16T07:42:14;4.30;;;1.50;;
2756;SDS011;1386;50.862;6.494;2022-09-16T07:44:41;3.70;;;1.63;;
2756;SDS011;1386;50.862;6.494;2022-09-16T07:47:08;5.70;;;1.60;;
2756;SDS011;1386;50.862;6.494;2022-09-16T07:49:37;5.00;;;3.00;;
2756;SDS011;1386;50.862;6.494;2022-09-16T07:52:03;3.33;;;1.50;;
2756;SDS011;1386;50.862;6.494;2022-09-16T07:54:30;6.00;;;1.63;;
2756;SDS011;1386;50.862;6.494;2022-09-16T07:56:57;4.33;;;1.90;;
2756;SDS011;1386;50.862;6.494;2022-09-16T07:59:25;2.70;;;1.70;;
2756;SDS011;1386;50.862;6.494;2022-09-16T08:02:00;3.07;;;1.70;;
2756;SDS011;1386;50.862;6.494;2022-09-16T08:04:27;3.23;;;1.60;;
2756;SDS011;1386;50.862;6.494;2022-09-16T08:06:55;5.30;;;1.63;;
2756;SDS011;1386;50.862;6.494;2022-09-16T08:09:31;3.40;;;1.80;;
2756;SDS011;1386;50.862;6.494;2022-09-16T08:11:58;3.17;;;1.40;;
2756;SDS011;1386;50.862;6.494;2022-09-16T08:14:28;4.47;;;1.50;;
2756;SDS011;1386;50.862;6.494;2022-09-16T08:16:54;1.90;;;1.50;;
2756;SDS011;1386;50.862;6.494;2022-09-16T08:22:23;2.83;;;1.40;;
2756;SDS011;1386;50.862;6.494;2022-09-16T08:24:53;1.73;;;1.23;;
2756;SDS011;1386;50.862;6.494;2022-09-16T08:27:20;2.53;;;1.40;;
2756;SDS011;1386;50.862;6.494;2022-09-16T08:29:47;2.03;;;1.33;;
2756;SDS011;1386;50.862;6.494;2022-09-16T08:35:20;3.27;;;1.20;;
2756;SDS011;1386;50.862;6.494;2022-09-16T08:37:48;3.93;;;1.50;;
2756;SDS011;1386;50.862;6.494;2022-09-16T08:40:16;4.30;;;1.33;;
2756;SDS011;1386;50.862;6.494;2022-09-16T08:42:56;3.80;;;1.67;;
2756;SDS011;1386;50.862;6.494;2022-09-16T08:45:28;6.97;;;1.90;;
2756;SDS011;1386;50.862;6.494;2022-09-16T08:48:05;3.77;;;1.30;;
2756;SDS011;1386;50.862;6.494;2022-09-16T08:53:38;1.30;;;1.00;;
2756;SDS011;1386;50.862;6.494;2022-09-16T08:56:09;1.57;;;0.90;;
2756;SDS011;1386;50.862;6.494;2022-09-16T08:58:53;4.57;;;1.40;;
2756;SDS011;1386;50.862;6.494;2022-09-16T09:01:43;3.13;;;1.40;;
2756;SDS011;1386;50.862;6.494;2022-09-16T09:04:15;2.80;;;1.37;;
2756;SDS011;1386;50.862;6.494;2022-09-16T09:06:45;4.10;;;1.20;;
2756;SDS011;1386;50.862;6.494;2022-09-16T09:09:24;1.50;;;1.00;;
2756;SDS011;1386;50.862;6.494;2022-09-16T09:12:04;5.00;;;1.83;;
2756;SDS011;1386;50.862;6.494;2022-09-16T09:14:37;3.30;;;1.30;;
2756;SDS011;1386;50.862;6.494;2022-09-16T09:17:15;6.63;;;2.80;;
2756;SDS011;1386;50.862;6.494;2022-09-16T09:19:54;5.50;;;1.20;;
2756;SDS011;1386;50.862;6.494;2022-09-16T09:22:34;2.17;;;1.30;;
2756;SDS011;1386;50.862;6.494;2022-09-16T09:25:24;2.60;;;1.43;;
2756;SDS011;1386;50.862;6.494;2022-09-16T09:28:10;3.90;;;1.67;;
2756;SDS011;1386;50.862;6.494;2022-09-16T09:30:49;6.13;;;1.60;;
2756;SDS011;1386;50.862;6.494;2022-09-16T09:33:24;6.70;;;1.20;;
2756;SDS011;1386;50.862;6.494;2022-09-16T09:39:05;3.23;;;1.10;;
2756;SDS011;1386;50.862;6.494;2022-09-16T09:41:42;1.97;;;1.20;;
2756;SDS011;1386;50.862;6.494;2022-09-16T09:44:25;2.87;;;1.20;;
2756;SDS011;1386;50.862;6.494;2022-09-16T09:47:06;1.80;;;1.30;;
2756;SDS011;1386;50.862;6.494;2022-09-16T09:49:38;4.57;;;1.13;;
2756;SDS011;1386;50.862;6.494;2022-09-16T09:52:11;4.37;;;1.10;;
2756;SDS011;1386;50.862;6.494;2022-09-16T09:54:42;2.13;;;1.03;;
2756;SDS011;1386;50.862;6.494;2022-09-16T09:57:15;2.40;;;1.10;;
2756;SDS011;1386;50.862;6.494;2022-09-16T09:59:48;16.53;;;3.00;;
2756;SDS011;1386;50.862;6.494;2022-09-16T10:02:21;12.33;;;2.60;;
2756;SDS011;1386;50.862;6.494;2022-09-16T10:04:48;8.17;;;1.70;;
2756;SDS011;1386;50.862;6.494;2022-09-16T10:07:16;3.67;;;1.50;;
2756;SDS011;1386;50.862;6.494;2022-09-16T10:09:46;2.20;;;1.30;;
2756;SDS011;1386;50.862;6.494;2022-09-16T10:12:26;1.53;;;0.80;;
2756;SDS011;1386;50.862;6.494;2022-09-16T10:14:54;2.13;;;1.10;;
2756;SDS011;1386;50.862;6.494;2022-09-16T10:17:21;3.27;;;1.00;;
2756;SDS011;1386;50.862;6.494;2022-09-16T10:19:49;3.67;;;1.07;;
2756;SDS011;1386;50.862;6.494;2022-09-16T10:22:18;1.40;;;1.10;;
2756;SDS011;1386;50.862;6.494;2022-09-16T10:24:52;4.40;;;1.40;;
2756;SDS011;1386;50.862;6.494;2022-09-16T10:27:21;5.93;;;1.50;;
2756;SDS011;1386;50.862;6.494;2022-09-16T10:30:02;5.07;;;1.60;;
2756;SDS011;1386;50.862;6.494;2022-09-16T10:32:39;2.50;;;1.10;;
2756;SDS011;1386;50.862;6.494;2022-09-16T10:35:16;1.60;;;1.10;;
2756;SDS011;1386;50.862;6.494;2022-09-16T10:37:48;2.13;;;0.93;;
2756;SDS011;1386;50.862;6.494;2022-09-16T10:40:17;5.80;;;1.00;;
2756;SDS011;1386;50.862;6.494;2022-09-16T10:42:47;2.40;;;1.00;;
2756;SDS011;1386;50.862;6.494;2022-09-16T10:45:17;2.17;;;1.20;;
2756;SDS011;1386;50.862;6.494;2022-09-16T10:47:50;3.67;;;1.10;;
2756;SDS011;1386;50.862;6.494;2022-09-16T10:50:19;1.60;;;1.00;;
2756;SDS011;1386;50.862;6.494;2022-09-16T10:52:47;2.60;;;1.10;;
2756;SDS011;1386;50.862;6.494;2022-09-16T10:55:22;3.27;;;1.30;;
2756;SDS011;1386;50.862;6.494;2022-09-16T10:57:53;1.50;;;1.00;;
2756;SDS011;1386;50.862;6.494;2022-09-16T11:00:33;3.07;;;1.07;;
2756;SDS011;1386;50.862;6.494;2022-09-16T11:06:14;3.67;;;0.93;;
2756;SDS011;1386;50.862;6.494;2022-09-16T11:09:00;3.30;;;1.37;;
2756;SDS011;1386;50.862;6.494;2022-09-16T11:11:37;3.07;;;1.03;;
2756;SDS011;1386;50.862;6.494;2022-09-16T11:14:14;3.63;;;0.90;;
2756;SDS011;1386;50.862;6.494;2022-09-16T11:16:55;5.03;;;1.70;;
2756;SDS011;1386;50.862;6.494;2022-09-16T11:19:37;7.03;;;1.43;;
2756;SDS011;1386;50.862;6.494;2022-09-16T11:22:16;14.03;;;2.10;;
2756;SDS011;1386;50.862;6.494;2022-09-16T11:28:07;3.23;;;1.20;;
2756;SDS011;1386;50.862;6.494;2022-09-16T11:30:46;4.10;;;1.00;;
2756;SDS011;1386;50.862;6.494;2022-09-16T11:33:24;2.20;;;1.10;;
2756;SDS011;1386;50.862;6.494;2022-09-16T11:38:58;9.47;;;1.50;;
2756;SDS011;1386;50.862;6.494;2022-09-16T11:41:38;5.23;;;1.37;;
2756;SDS011;1386;50.862;6.494;2022-09-16T11:47:14;7.30;;;1.27;;
2756;SDS011;1386;50.862;6.494;2022-09-16T11:49:58;5.60;;;1.53;;
2756;SDS011;1386;50.862;6.494;2022-09-16T11:55:53;3.70;;;1.30;;
2756;SDS011;1386;50.862;6.494;2022-09-16T11:58:26;5.13;;;1.00;;
2756;SDS011;1386;50.862;6.494;2022-09-16T12:01:00;1.40;;;0.80;;
2756;SDS011;1386;50.862;6.494;2022-09-16T12:03:36;3.63;;;1.20;;
2756;SDS011;1386;50.862;6.494;2022-09-16T12:06:09;1.50;;;1.07;;
2756;SDS011;1386;50.862;6.494;2022-09-16T12:08:44;2.50;;;1.13;;
2756;SDS011;1386;50.862;6.494;2022-09-16T12:11:19;3.93;;;1.37;;
2756;SDS011;1386;50.862;6.494;2022-09-16T12:13:57;1.73;;;1.00;;
2756;SDS011;1386;50.862;6.494;2022-09-16T12:16:30;3.93;;;1.00;;
2756;SDS011;1386;50.862;6.494;2022-09-16T12:19:05;2.30;;;1.47;;
2756;SDS011;1386;50.862;6.494;2022-09-16T12:21:41;2.33;;;1.23;;
2756;SDS011;1386;50.862;6.494;2022-09-16T12:24:14;2.33;;;1.10;;
2756;SDS011;1386;50.862;6.494;2022-09-16T12:26:47;2.10;;;1.00;;
2756;SDS011;1386;50.862;6.494;2022-09-16T12:29:17;2.93;;;1.17;;
2756;SDS011;1386;50.862;6.494;2022-09-16T12:31:49;2.37;;;0.90;;
2756;SDS011;1386;50.862;6.494;2022-09-16T12:34:21;1.20;;;0.90;;
2756;SDS011;1386;50.862;6.494;2022-09-16T12:36:56;1.40;;;0.80;;
2756;SDS011;1386;50.862;6.494;2022-09-16T12:39:29;4.30;;;0.90;;
2756;SDS011;1386;50.862;6.494;2022-09-16T12:45:16;2.10;;;1.20;;
2756;SDS011;1386;50.862;6.494;2022-09-16T12:48:03;3.90;;;1.03;;
2756;SDS011;1386;50.862;6.494;2022-09-16T12:50:56;4.53;;;0.93;;
2756;SDS011;1386;50.862;6.494;2022-09-16T12:54:00;1.20;;;1.00;;
2756;SDS011;1386;50.862;6.494;2022-09-16T12:57:00;1.70;;;1.00;;
2756;SDS011;1386;50.862;6.494;2022-09-16T13:02:42;2.43;;;0.97;;
2756;SDS011;1386;50.862;6.494;2022-09-16T13:05:13;1.83;;;1.13;;
2756;SDS011;1386;50.862;6.494;2022-09-16T13:07:46;1.20;;;0.80;;
2756;SDS011;1386;50.862;6.494;2022-09-16T13:10:18;3.00;;;1.00;;
2756;SDS011;1386;50.862;6.494;2022-09-16T13:12:50;2.37;;;1.23;;
2756;SDS011;1386;50.862;6.494;2022-09-16T13:15:26;1.97;;;1.50;;
2756;SDS011;1386;50.862;6.494;2022-09-16T13:18:05;1.50;;;0.93;;
2756;SDS011;1386;50.862;6.494;2022-09-16T13:20:34;2.10;;;1.10;;
2756;SDS011;1386;50.862;6.494;2022-09-16T13:23:06;1.63;;;0.97;;
2756;SDS011;1386;50.862;6.494;2022-09-16T13:25:42;2.03;;;1.13;;
2756;SDS011;1386;50.862;6.494;2022-09-16T13:28:21;2.90;;;1.00;;
2756;SDS011;1386;50.862;6.494;2022-09-16T13:30:51;3.07;;;1.03;;
2756;SDS011;1386;50.862;6.494;2022-09-16T13:33:20;2.50;;;1.30;;
2756;SDS011;1386;50.862;6.494;2022-09-16T13:36:03;2.07;;;1.40;;
2756;SDS011;1386;50.862;6.494;2022-09-16T13:38:41;1.40;;;1.00;;
2756;SDS011;1386;50.862;6.494;2022-09-16T13:41:11;1.10;;;0.97;;
2756;SDS011;1386;50.862;6.494;2022-09-16T13:43:51;0.97;;;0.87;;
2756;SDS011;1386;50.862;6.494;2022-09-16T13:46:26;1.43;;;0.80;;
2756;SDS011;1386;50.862;6.494;2022-09-16T13:48:55;1.77;;;0.90;;
2756;SDS011;1386;50.862;6.494;2022-09-16T13:51:29;1.30;;;0.87;;
2756;SDS011;1386;50.862;6.494;2022-09-16T13:53:58;1.03;;;0.93;;
2756;SDS011;1386;50.862;6.494;2022-09-16T13:56:40;1.50;;;1.10;;
2756;SDS011;1386;50.862;6.494;2022-09-16T13:59:17;3.63;;;0.90;;
2756;SDS011;1386;50.862;6.494;2022-09-16T14:01:55;1.57;;;1.10;;
2756;SDS011;1386;50.862;6.494;2022-09-16T14:04:36;1.60;;;0.90;;
2756;SDS011;1386;50.862;6.494;2022-09-16T14:07:18;2.67;;;1.10;;
2756;SDS011;1386;50.862;6.494;2022-09-16T14:09:54;2.93;;;1.03;;
2756;SDS011;1386;50.862;6.494;2022-09-16T14:12:29;2.77;;;1.00;;
2756;SDS011;1386;50.862;6.494;2022-09-16T14:15:06;1.33;;;1.00;;
2756;SDS011;1386;50.862;6.494;2022-09-16T14:17:36;2.10;;;1.00;;
2756;SDS011;1386;50.862;6.494;2022-09-16T14:20:05;2.27;;;1.00;;
2756;SDS011;1386;50.862;6.494;2022-09-16T14:22:40;4.20;;;1.00;;
2756;SDS011;1386;50.862;6.494;2022-09-16T14:25:23;1.20;;;0.90;;
2756;SDS011;1386;50.862;6.494;2022-09-16T14:28:05;2.50;;;0.90;;
2756;SDS011;1386;50.862;6.494;2022-09-16T14:30:43;3.30;;;1.13;;
2756;SDS011;1386;50.862;6.494;2022-09-16T14:33:12;3.40;;;1.30;;
2756;SDS011;1386;50.862;6.494;2022-09-16T14:35:39;1.97;;;1.10;;
2756;SDS011;1386;50.862;6.494;2022-09-16T14:38:11;2.50;;;1.30;;
2756;SDS011;1386;50.862;6.494;2022-09-16T14:40:40;3.57;;;1.30;;
2756;SDS011;1386;50.862;6.494;2022-09-16T14:43:11;3.20;;;1.40;;
2756;SDS011;1386;50.862;6.494;2022-09-16T14:45:43;2.80;;;1.30;;
2756;SDS011;1386;50.862;6.494;2022-09-16T14:48:12;3.07;;;1.13;;
2756;SDS011;1386;50.862;6.494;2022-09-16T14:50:41;3.17;;;1.03;;
2756;SDS011;1386;50.862;6.494;2022-09-16T14:53:27;1.50;;;0.93;;
2756;SDS011;1386;50.862;6.494;2022-09-16T14:55:56;3.23;;;1.00;;
2756;SDS011;1386;50.862;6.494;2022-09-16T14:58:25;2.90;;;0.87;;
2756;SDS011;1386;50.862;6.494;2022-09-16T15:00:54;1.30;;;0.80;;
2756;SDS011;1386;50.862;6.494;2022-09-16T15:06:17;1.73;;;0.93;;
2756;SDS011;1386;50.862;6.494;2022-09-16T21:05:26;3.80;;;1.93;;
2756;SDS011;1386;50.862;6.494;2022-09-16T21:07:54;7.20;;;3.10;;
2756;SDS011;1386;50.862;6.494;2022-09-16T21:10:22;4.13;;;1.90;;
2756;SDS011;1386;50.862;6.494;2022-09-16T21:12:49;2.70;;;1.67;;
2756;SDS011;1386;50.862;6.494;2022-09-16T21:15:18;5.23;;;1.70;;
2756;SDS011;1386;50.862;6.494;2022-09-16T21:17:44;8.73;;;2.20;;
2756;SDS011;1386;50.862;6.494;2022-09-16T21:20:11;4.60;;;1.67;;
2756;SDS011;1386;50.862;6.494;2022-09-16T21:22:40;5.50;;;2.20;;
2756;SDS011;1386;50.862;6.494;2022-09-16T21:25:08;3.40;;;1.70;;
2756;SDS011;1386;50.862;6.494;2022-09-16T21:27:35;3.67;;;1.80;;
2756;SDS011;1386;50.862;6.494;2022-09-16T21:30:02;5.63;;;2.47;;
2756;SDS011;1386;50.862;6.494;2022-09-16T21:32:29;2.80;;;1.90;;
2756;SDS011;1386;50.862;6.494;2022-09-16T21:34:56;3.30;;;1.47;;
2756;SDS011;1386;50.862;6.494;2022-09-16T21:37:23;4.90;;;1.87;;
2756;SDS011;1386;50.862;6.494;2022-09-16T21:39:52;5.07;;;1.60;;
2756;SDS011;1386;50.862;6.494;2022-09-16T21:42:18;4.13;;;1.50;;
2756;SDS011;1386;50.862;6.494;2022-09-16T21:44:45;2.73;;;1.70;;
2756;SDS011;1386;50.862;6.494;2022-09-16T21:47:12;6.67;;;1.80;;
2756;SDS011;1386;50.862;6.494;2022-09-16T21:49:39;6.07;;;1.80;;
2756;SDS011;1386;50.862;6.494;2022-09-16T21:52:06;4.70;;;2.13;;
2756;SDS011;1386;50.862;6.494;2022-09-16T21:54:34;2.70;;;1.60;;
2756;SDS011;1386;50.862;6.494;2022-09-16T21:57:02;4.63;;;1.90;;
2756;SDS011;1386;50.862;6.494;2022-09-16T21:59:29;5.40;;;2.10;;
2756;SDS011;1386;50.862;6.494;2022-09-16T22:01:55;1.80;;;1.60;;
2756;SDS011;1386;50.862;6.494;2022-09-16T22:04:22;4.63;;;1.60;;
2756;SDS011;1386;50.862;6.494;2022-09-16T22:06:50;4.03;;;2.73;;
2756;SDS011;1386;50.862;6.494;2022-09-16T22:09:19;3.93;;;2.37;;
2756;SDS011;1386;50.862;6.494;2022-09-16T22:11:46;4.73;;;2.07;;
2756;SDS011;1386;50.862;6.494;2022-09-16T22:14:14;5.20;;;1.90;;
2756;SDS011;1386;50.862;6.494;2022-09-16T22:16:41;3.93;;;1.60;;
2756;SDS011;1386;50.862;6.494;2022-09-16T22:19:10;2.47;;;1.63;;
2756;SDS011;1386;50.862;6.494;2022-09-16T22:21:39;3.43;;;1.60;;
2756;SDS011;1386;50.862;6.494;2022-09-16T22:24:07;7.40;;;2.10;;
2756;SDS011;1386;50.862;6.494;2022-09-16T22:26:35;4.07;;;1.60;;
2756;SDS011;1386;50.862;6.494;2022-09-16T22:29:02;4.50;;;1.70;;
2756;SDS011;1386;50.862;6.494;2022-09-16T22:31:32;4.23;;;2.00;;
2756;SDS011;1386;50.862;6.494;2022-09-16T22:34:00;4.63;;;2.00;;
2756;SDS011;1386;50.862;6.494;2022-09-16T22:36:28;2.60;;;1.80;;
2756;SDS011;1386;50.862;6.494;2022-09-16T22:38:57;2.20;;;1.60;;
2756;SDS011;1386;50.862;6.494;2022-09-16T22:41:26;3.60;;;1.50;;
2756;SDS011;1386;50.862;6.494;2022-09-16T22:43:53;3.10;;;1.70;;